Time;durP1;ratioP1;P1;durP2;ratioP2;P2;SDS_P1;SDS_P2;PMS_P1;PMS_P2;Temp;Humidity;BMP_temperature;BMP_pressure;BME280_temperature;BME280_humidity;BME280_pressure;Samples;Min_cycle;Max_cycle;Signal;HPM_P1;HPM_P2
2023/02/25 00:01:22;;;;;;;19.88;4.53;;;;;;;3.52;100.00;98615.38;4992667;28;20050;-64
2023/02/25 00:03:54;;;;;;;18.10;4.03;;;;;;;3.42;100.00;98598.66;4999243;28;20056;-66
2023/02/25 00:06:22;;;;;;;29.48;4.95;;;;;;;3.42;100.00;98598.66;4994075;28;20069;-65
2023/02/25 00:08:51;;;;;;;13.30;3.10;;;;;;;3.37;100.00;98598.94;5014277;28;20050;-65
2023/02/25 00:11:19;;;;;;;15.15;3.92;;;;;;;3.34;100.00;98606.94;4990646;28;20061;-66
2023/02/25 00:13:46;;;;;;;21.48;3.70;;;;;;;3.34;100.00;98578.34;5003959;28;20085;-64
2023/02/25 00:16:14;;;;;;;23.00;4.75;;;;;;;3.29;100.00;98581.22;4996021;28;20158;-65
2023/02/25 00:18:45;;;;;;;17.98;4.00;;;;;;;3.29;100.00;98580.38;5001417;28;20081;-63
2023/02/25 00:21:14;;;;;;;24.08;4.22;;;;;;;3.28;100.00;98582.13;4998293;28;20064;-62
2023/02/25 00:23:44;;;;;;;22.33;3.35;;;;;;;3.27;100.00;98601.28;4994918;28;20050;-65
2023/02/25 00:26:11;;;;;;;17.60;4.32;;;;;;;3.27;100.00;98621.25;5000279;28;20073;-65
2023/02/25 00:28:39;;;;;;;12.65;2.15;;;;;;;3.13;100.00;98627.28;4995749;28;20140;-63
2023/02/25 00:31:12;;;;;;;10.98;1.95;;;;;;;2.99;100.00;98645.47;5001820;28;20185;-64
2023/02/25 00:33:40;;;;;;;3.70;1.13;;;;;;;2.75;100.00;98625.22;4993107;28;20042;-65
2023/02/25 00:36:13;;;;;;;3.28;0.90;;;;;;;2.47;100.00;98641.53;5002398;28;20050;-65
2023/02/25 00:38:40;;;;;;;2.13;0.90;;;;;;;2.18;100.00;98644.97;4999424;28;20064;-65
2023/02/25 00:41:10;;;;;;;3.15;1.00;;;;;;;2.03;100.00;98642.31;5001565;28;20077;-64
2023/02/25 00:43:41;;;;;;;1.80;0.75;;;;;;;1.94;100.00;98642.84;4998668;28;20532;-64
2023/02/25 00:46:09;;;;;;;3.80;1.00;;;;;;;1.83;100.00;98633.97;4997222;28;20133;-64
2023/02/25 00:48:36;;;;;;;4.28;0.90;;;;;;;1.77;100.00;98633.38;4992959;28;20071;-65
2023/02/25 00:51:12;;;;;;;4.90;1.17;;;;;;;1.72;100.00;98632.81;4995816;28;20201;-64
2023/02/25 00:53:40;;;;;;;3.72;1.08;;;;;;;1.70;100.00;98626.00;4996010;28;20073;-64
2023/02/25 00:56:08;;;;;;;5.70;1.65;;;;;;;1.72;100.00;98625.03;5001548;28;20076;-64
2023/02/25 00:58:37;;;;;;;3.40;1.50;;;;;;;1.69;100.00;98622.56;4995995;28;20130;-64
2023/02/25 01:01:13;;;;;;;6.72;2.13;;;;;;;1.67;100.00;98623.59;4995928;28;20061;-64
2023/02/25 01:03:40;;;;;;;3.28;2.55;;;;;;;1.67;100.00;98616.66;5000121;28;20058;-63
2023/02/25 01:06:08;;;;;;;4.93;2.67;;;;;;;1.68;100.00;98614.91;4992896;28;20073;-63
2023/02/25 01:08:35;;;;;;;4.10;2.00;;;;;;;1.70;100.00;98608.69;4989647;28;20133;-64
2023/02/25 01:11:10;;;;;;;8.23;2.33;;;;;;;1.68;100.00;98618.31;4995122;28;20073;-65
2023/02/25 01:13:38;;;;;;;7.25;2.65;;;;;;;1.70;100.00;98616.47;4997134;28;20061;-64
2023/02/25 01:16:14;;;;;;;6.78;2.20;;;;;;;1.71;100.00;98615.56;5002466;28;20140;-62
2023/02/25 01:18:42;;;;;;;6.15;2.47;;;;;;;1.76;100.00;98610.13;4994782;28;20134;-64
2023/02/25 01:21:17;;;;;;;14.25;4.78;;;;;;;1.76;100.00;98610.97;4994830;28;20077;-65
2023/02/25 01:23:48;;;;;;;13.23;5.57;;;;;;;1.82;100.00;98612.38;4991676;28;20061;-64
2023/02/25 01:26:15;;;;;;;13.50;7.45;;;;;;;1.92;100.00;98610.94;4994243;28;20058;-65
2023/02/25 01:28:42;;;;;;;12.10;6.22;;;;;;;1.96;100.00;98603.81;5000832;28;20064;-65
2023/02/25 01:31:18;;;;;;;20.63;6.68;;;;;;;1.95;100.00;98608.19;4992505;28;20665;-65
2023/02/25 01:33:45;;;;;;;13.80;4.85;;;;;;;1.95;100.00;98607.34;4995108;28;20474;-65
2023/02/25 01:36:13;;;;;;;10.40;4.60;;;;;;;2.00;100.00;98608.75;4992918;28;20070;-65
2023/02/25 01:38:40;;;;;;;12.63;5.68;;;;;;;2.03;100.00;98597.38;4987641;28;20145;-64
2023/02/25 01:41:08;;;;;;;11.63;5.90;;;;;;;2.03;100.00;98607.75;4993663;28;20433;-65
2023/02/25 01:43:35;;;;;;;12.45;5.95;;;;;;;2.08;100.00;98600.53;4993586;28;20080;-65
2023/02/25 01:46:02;;;;;;;15.23;6.72;;;;;;;2.10;100.00;98605.63;4988597;28;20126;-65
2023/02/25 01:48:35;;;;;;;8.30;6.18;;;;;;;2.11;100.00;98604.69;4994072;28;20133;-64
2023/02/25 01:51:08;;;;;;;15.82;6.10;;;;;;;2.20;100.00;98601.59;4995261;28;20054;-64
2023/02/25 01:53:45;;;;;;;10.38;6.00;;;;;;;2.23;100.00;98598.81;4992492;28;20137;-64
2023/02/25 01:56:16;;;;;;;11.88;6.35;;;;;;;2.26;100.00;98599.50;4995845;28;20062;-64
2023/02/25 01:58:43;;;;;;;10.95;6.47;;;;;;;2.30;100.00;98600.16;4992384;28;20050;-63
2023/02/25 02:01:11;;;;;;;13.98;7.80;;;;;;;2.34;100.00;98604.22;4994466;28;20145;-63
2023/02/25 02:03:39;;;;;;;15.02;8.27;;;;;;;2.33;100.00;98606.91;4995680;28;20134;-63
2023/02/25 02:06:11;;;;;;;17.00;8.00;;;;;;;2.36;100.00;98598.97;5000824;28;20069;-64
2023/02/25 02:08:39;;;;;;;14.75;7.30;;;;;;;2.39;100.00;98612.59;5005727;28;20062;-65
2023/02/25 02:11:07;;;;;;;14.70;6.72;;;;;;;2.39;100.00;98597.03;4993473;28;20053;-63
2023/02/25 02:13:36;;;;;;;10.48;6.15;;;;;;;2.40;100.00;98603.88;4993536;28;20058;-65
2023/02/25 02:16:09;;;;;;;13.23;6.35;;;;;;;2.45;100.00;98598.44;4995034;28;20107;-65
2023/02/25 02:18:38;;;;;;;13.25;5.97;;;;;;;2.44;100.00;98597.59;4994126;28;20066;-64
2023/02/25 02:21:35;;;;;;;10.00;5.35;;;;;;;2.43;100.00;98602.84;4992871;28;20165;-63
2023/02/25 02:24:25;;;;;;;9.68;4.75;;;;;;;2.49;100.00;98585.19;5002178;28;20145;-67
2023/02/25 02:27:06;;;;;;;10.73;5.05;;;;;;;2.53;100.00;98604.03;4986736;28;20073;-66
2023/02/25 02:30:25;;;;;;;7.15;3.60;;;;;;;2.52;100.00;98590.19;4989293;28;20137;-64
2023/02/25 02:33:01;;;;;;;5.72;2.80;;;;;;;2.56;100.00;98595.19;4958830;28;20048;-64
2023/02/25 02:35:38;;;;;;;9.77;2.75;;;;;;;2.60;100.00;98600.13;4992265;28;20137;-63
2023/02/25 02:38:13;;;;;;;3.60;2.45;;;;;;;2.58;100.00;98598.56;5010490;28;20656;-64
2023/02/25 02:40:57;;;;;;;4.72;1.98;;;;;;;2.57;100.00;98605.50;4995651;28;20074;-65
2023/02/25 02:43:34;;;;;;;4.68;1.88;;;;;;;2.60;100.00;98596.69;4988517;28;20046;-65
2023/02/25 02:46:13;;;;;;;5.68;2.05;;;;;;;2.56;100.00;98592.59;4991215;28;20911;-65
2023/02/25 02:48:49;;;;;;;3.22;2.10;;;;;;;2.56;100.00;98598.63;4986245;28;20062;-64
2023/02/25 02:51:21;;;;;;;7.85;2.10;;;;;;;2.58;100.00;98614.13;4991123;28;20557;-62
2023/02/25 02:53:52;;;;;;;6.32;2.30;;;;;;;2.64;100.00;98603.38;4988921;28;20043;-63
2023/02/25 02:56:21;;;;;;;3.28;2.40;;;;;;;2.64;100.00;98600.78;4990218;28;20137;-63
2023/02/25 02:59:06;;;;;;;4.22;2.10;;;;;;;2.59;100.00;98610.59;4991401;28;20069;-64
2023/02/25 03:01:37;;;;;;;3.35;1.85;;;;;;;2.56;100.00;98595.19;4992863;28;20064;-64
2023/02/25 03:04:07;;;;;;;3.92;1.95;;;;;;;2.53;100.00;98614.41;4992263;28;20387;-64
2023/02/25 03:06:41;;;;;;;4.05;1.90;;;;;;;2.53;100.00;98617.00;4996502;28;20459;-64
2023/02/25 03:09:21;;;;;;;5.55;3.33;;;;;;;2.52;100.00;98612.72;5000835;28;20062;-65
2023/02/25 03:11:48;;;;;;;3.80;2.08;;;;;;;2.49;100.00;98620.69;4989274;28;20154;-64
2023/02/25 03:14:16;;;;;;;3.63;1.92;;;;;;;2.50;100.00;98627.56;4997995;28;20068;-65
2023/02/25 03:16:52;;;;;;;6.35;4.15;;;;;;;2.54;100.00;98642.88;4998061;28;20042;-64
2023/02/25 03:19:31;;;;;;;5.65;3.08;;;;;;;2.50;100.00;98638.78;4988717;28;20308;-63
2023/02/25 03:22:05;;;;;;;12.48;5.25;;;;;;;2.56;100.00;98645.38;4991807;28;20129;-64
2023/02/25 03:25:02;;;;;;;14.95;7.40;;;;;;;2.58;100.00;98640.13;4990021;28;20533;-62
2023/02/25 03:27:34;;;;;;;10.70;4.65;;;;;;;2.52;100.00;98664.66;4994496;28;20051;-64
2023/02/25 03:30:11;;;;;;;6.05;3.10;;;;;;;2.50;100.00;98663.91;4978048;28;20053;-64
2023/02/25 03:32:42;;;;;;;8.10;2.60;;;;;;;2.48;100.00;98669.22;5002761;28;20056;-65
2023/02/25 03:35:11;;;;;;;7.88;3.30;;;;;;;2.46;100.00;98667.63;5027850;28;20126;-65
2023/02/25 03:37:41;;;;;;;3.55;2.35;;;;;;;2.43;100.00;98673.84;4981815;28;20076;-65
2023/02/25 03:40:10;;;;;;;5.40;2.45;;;;;;;2.38;100.00;98669.81;5022033;28;20133;-65
2023/02/25 03:42:41;;;;;;;5.78;3.10;;;;;;;2.36;100.00;98676.84;4995335;28;20104;-64
2023/02/25 03:45:10;;;;;;;6.22;3.55;;;;;;;2.39;100.00;98685.31;4997989;28;20843;-63
2023/02/25 03:47:38;;;;;;;6.97;3.25;;;;;;;2.39;100.00;98687.09;4992985;28;20141;-63
2023/02/25 03:50:11;;;;;;;7.30;3.72;;;;;;;2.43;100.00;98683.34;4986609;28;20050;-64
2023/02/25 03:52:39;;;;;;;10.73;4.53;;;;;;;2.44;100.00;98695.44;4984425;28;20507;-63
2023/02/25 03:55:08;;;;;;;6.20;3.42;;;;;;;2.47;100.00;98695.25;4990383;28;20046;-63
2023/02/25 03:57:38;;;;;;;7.50;2.60;;;;;;;2.41;100.00;98700.81;4997559;28;20048;-65
2023/02/25 04:00:17;;;;;;;3.70;2.00;;;;;;;2.42;100.00;98698.09;4990484;28;20133;-64
2023/02/25 04:02:46;;;;;;;17.20;7.88;;;;;;;2.36;100.00;98703.66;4994487;28;20050;-65
2023/02/25 04:05:15;;;;;;;31.67;15.60;;;;;;;2.33;100.00;98693.44;4992467;28;20058;-66
2023/02/25 04:07:42;;;;;;;44.45;20.15;;;;;;;2.33;100.00;98698.63;4988377;28;20153;-65
2023/02/25 04:10:11;;;;;;;33.28;15.02;;;;;;;2.30;100.00;98706.59;4992629;28;20077;-64
2023/02/25 04:12:39;;;;;;;50.78;21.88;;;;;;;2.28;100.00;98716.22;4996200;28;20529;-64
2023/02/25 04:15:08;;;;;;;48.10;20.05;;;;;;;2.28;100.00;98711.03;4994189;28;20964;-65
2023/02/25 04:17:36;;;;;;;39.85;18.17;;;;;;;2.32;100.00;98719.50;4996141;28;20049;-63
2023/02/25 04:20:04;;;;;;;38.38;17.95;;;;;;;2.31;100.00;98716.06;4993161;28;20719;-64
2023/02/25 04:22:32;;;;;;;25.80;13.52;;;;;;;2.28;100.00;98737.00;4996028;28;20050;-64
2023/02/25 04:24:59;;;;;;;24.88;12.38;;;;;;;2.33;100.00;98731.53;4990814;28;20052;-64
2023/02/25 04:27:27;;;;;;;26.35;12.98;;;;;;;2.33;100.00;98728.94;4995580;28;20068;-63
2023/02/25 04:29:54;;;;;;;15.52;7.88;;;;;;;2.26;100.00;98731.06;4995924;28;20076;-64
2023/02/25 04:32:21;;;;;;;14.00;7.30;;;;;;;2.27;100.00;98741.34;4991749;28;20105;-63
2023/02/25 04:34:48;;;;;;;14.25;6.68;;;;;;;2.26;100.00;98738.84;4996504;28;20046;-64
2023/02/25 04:37:17;;;;;;;10.93;5.15;;;;;;;2.23;100.00;98741.59;4992133;28;20165;-64
2023/02/25 04:39:44;;;;;;;13.48;6.22;;;;;;;2.20;100.00;98746.97;4992921;28;20130;-63
2023/02/25 04:42:11;;;;;;;16.13;6.50;;;;;;;2.21;100.00;98740.88;4988144;28;20080;-65
2023/02/25 04:44:38;;;;;;;15.65;7.15;;;;;;;2.25;100.00;98750.13;4992858;28;20093;-64
2023/02/25 04:47:05;;;;;;;19.75;7.50;;;;;;;2.27;100.00;98753.50;4986113;28;20129;-64
2023/02/25 04:49:43;;;;;;;20.73;8.20;;;;;;;2.20;100.00;98752.97;4985897;28;20150;-64
2023/02/25 04:52:13;;;;;;;20.40;9.45;;;;;;;2.15;100.00;98747.22;4995163;28;20066;-65
2023/02/25 04:54:40;;;;;;;23.38;10.85;;;;;;;2.11;100.00;98747.47;4993430;28;20050;-62
2023/02/25 04:57:08;;;;;;;19.27;8.43;;;;;;;2.07;100.00;98756.34;4994264;28;20133;-63
2023/02/25 04:59:35;;;;;;;11.40;5.90;;;;;;;2.05;100.00;98753.81;4987683;28;20058;-62
2023/02/25 05:02:02;;;;;;;15.30;6.28;;;;;;;2.00;100.00;98759.25;4989346;28;20134;-64
2023/02/25 05:04:30;;;;;;;12.73;5.90;;;;;;;2.00;100.00;98759.25;4994774;28;20113;-65
2023/02/25 05:06:57;;;;;;;5.55;2.97;;;;;;;2.02;100.00;98760.00;4992381;28;20072;-64
2023/02/25 05:09:24;;;;;;;3.90;2.10;;;;;;;2.01;100.00;98762.69;4985873;28;20081;-63
2023/02/25 05:11:51;;;;;;;2.92;1.63;;;;;;;1.94;100.00;98757.00;4985972;28;20188;-64
2023/02/25 05:14:18;;;;;;;4.78;1.70;;;;;;;1.91;100.00;98759.75;5002540;28;20070;-63
2023/02/25 05:16:46;;;;;;;2.17;1.27;;;;;;;1.99;100.00;98767.16;4992745;28;20060;-64
2023/02/25 05:19:18;;;;;;;4.30;1.17;;;;;;;1.95;100.00;98769.06;4996129;28;20054;-63
2023/02/25 05:21:45;;;;;;;1.33;0.90;;;;;;;1.99;100.00;98778.34;4977399;28;20126;-64
2023/02/25 05:24:13;;;;;;;2.30;1.00;;;;;;;2.00;100.00;98777.44;4993079;28;20549;-63
2023/02/25 05:26:40;;;;;;;1.35;1.02;;;;;;;2.07;100.00;98782.28;4989949;28;20046;-65
2023/02/25 05:29:07;;;;;;;2.17;1.17;;;;;;;2.00;100.00;98782.63;4991630;28;20144;-64
2023/02/25 05:31:34;;;;;;;2.20;1.00;;;;;;;2.06;100.00;98780.63;4994743;28;20585;-65
2023/02/25 05:34:02;;;;;;;1.20;0.90;;;;;;;2.01;100.00;98773.91;4995874;28;20046;-64
2023/02/25 05:36:30;;;;;;;2.25;0.80;;;;;;;2.01;100.00;98781.69;4995450;28;20057;-64
2023/02/25 05:38:58;;;;;;;1.17;0.75;;;;;;;2.09;100.00;98783.88;5001738;28;20526;-66
2023/02/25 05:41:25;;;;;;;3.63;0.93;;;;;;;2.08;100.00;98791.78;5000069;28;20100;-65
2023/02/25 05:43:52;;;;;;;1.30;0.88;;;;;;;2.02;100.00;98795.50;4995039;28;20541;-63
2023/02/25 05:46:19;;;;;;;1.25;0.70;;;;;;;1.99;100.00;98803.47;4995732;28;20137;-64
2023/02/25 05:48:47;;;;;;;0.75;0.73;;;;;;;2.05;100.00;98807.50;5001785;28;20051;-64
2023/02/25 05:51:17;;;;;;;1.73;0.85;;;;;;;2.05;100.00;98802.31;4991269;28;20046;-65
2023/02/25 05:53:46;;;;;;;1.48;1.08;;;;;;;1.98;100.00;98805.25;4992432;28;20046;-64
2023/02/25 05:56:17;;;;;;;0.98;0.77;;;;;;;1.96;100.00;98825.22;4992778;28;20054;-65
2023/02/25 05:58:47;;;;;;;1.77;1.10;;;;;;;1.92;100.00;98828.06;4990985;28;20064;-65
2023/02/25 06:01:17;;;;;;;2.25;1.10;;;;;;;1.95;100.00;98822.72;4995422;28;20089;-65
2023/02/25 06:03:46;;;;;;;1.70;0.85;;;;;;;1.88;100.00;98840.34;4998591;28;20133;-65
2023/02/25 06:06:21;;;;;;;2.72;0.90;;;;;;;1.87;100.00;98838.69;4990749;28;20530;-64
2023/02/25 06:08:49;;;;;;;;;;;;;;;1.82;100.00;98847.63;4991676;28;20145;-68
2023/02/25 06:11:20;;;;;;;4.15;1.80;;;;;;;1.72;100.00;98848.09;4998313;28;20019;-65
2023/02/25 06:13:48;;;;;;;2.75;1.42;;;;;;;1.69;100.00;98847.41;4996294;28;20058;-64
2023/02/25 06:16:17;;;;;;;2.33;1.10;;;;;;;1.71;100.00;98876.69;4997593;28;20061;-64
2023/02/25 06:18:45;;;;;;;6.82;1.85;;;;;;;1.66;100.00;98868.31;4998476;28;20141;-64
2023/02/25 06:21:18;;;;;;;6.10;2.08;;;;;;;1.69;100.00;98871.59;4993899;28;20108;-64
2023/02/25 06:23:45;;;;;;;4.07;2.00;;;;;;;1.69;100.00;98878.53;4995212;28;20050;-63
2023/02/25 06:26:13;;;;;;;5.15;2.20;;;;;;;1.74;100.00;98889.53;4997167;28;20153;-63
2023/02/25 06:28:41;;;;;;;3.42;1.50;;;;;;;1.68;100.00;98892.44;4994995;28;20133;-63
2023/02/25 06:31:11;;;;;;;3.92;1.50;;;;;;;1.68;100.00;98895.03;4993438;28;20057;-64
2023/02/25 06:33:39;;;;;;;4.47;1.70;;;;;;;1.67;100.00;98896.78;4990469;28;20070;-64
2023/02/25 06:36:07;;;;;;;1.98;1.30;;;;;;;1.68;100.00;98905.41;4994372;28;20068;-63
2023/02/25 06:38:35;;;;;;;2.00;1.27;;;;;;;1.67;100.00;98908.91;4992360;28;20138;-64
2023/02/25 06:41:09;;;;;;;2.35;1.20;;;;;;;1.70;100.00;98919.13;4996569;28;20890;-64
2023/02/25 06:43:37;;;;;;;1.70;1.02;;;;;;;1.61;100.00;98911.78;4994238;28;20058;-63
2023/02/25 06:46:09;;;;;;;2.50;0.93;;;;;;;1.64;100.00;98935.00;4990032;28;20495;-63
2023/02/25 06:48:36;;;;;;;1.90;1.10;;;;;;;1.63;100.00;98934.16;4991696;28;20741;-64
2023/02/25 06:51:08;;;;;;;3.15;0.93;;;;;;;1.58;100.00;98935.31;4987776;28;20102;-62
2023/02/25 06:53:36;;;;;;;1.80;1.00;;;;;;;1.48;100.00;98943.50;4996440;28;20061;-64
2023/02/25 06:56:04;;;;;;;0.73;0.73;;;;;;;1.44;100.00;98935.97;4994184;28;20080;-63
2023/02/25 06:58:31;;;;;;;1.30;0.90;;;;;;;1.41;100.00;98951.69;4997196;28;20046;-63
2023/02/25 07:00:59;;;;;;;1.48;0.80;;;;;;;1.39;100.00;98959.50;4995410;28;20056;-63
2023/02/25 07:03:26;;;;;;;3.22;1.55;;;;;;;1.41;100.00;98959.47;4998318;28;20111;-62
2023/02/25 07:05:53;;;;;;;0.73;0.70;;;;;;;1.37;100.00;98961.34;4994988;28;20046;-63
2023/02/25 07:08:21;;;;;;;1.55;1.23;;;;;;;1.36;100.00;98972.66;4990515;28;20512;-63
2023/02/25 07:10:48;;;;;;;1.40;0.90;;;;;;;1.42;100.00;98981.88;4994123;28;20062;-64
2023/02/25 07:13:15;;;;;;;3.28;1.13;;;;;;;1.40;100.00;98984.56;4990429;28;20141;-64
2023/02/25 07:15:42;;;;;;;1.25;1.08;;;;;;;1.38;100.00;98988.13;4993196;28;20438;-66
2023/02/25 07:18:09;;;;;;;1.08;0.85;;;;;;;1.45;100.00;98995.53;4996828;28;20543;-64
2023/02/25 07:20:38;;;;;;;1.52;0.93;;;;;;;1.42;100.00;98994.84;4996068;28;20050;-64
2023/02/25 07:23:05;;;;;;;2.30;1.05;;;;;;;1.42;100.00;99007.81;4993794;28;20213;-62
2023/02/25 07:25:32;;;;;;;1.30;0.90;;;;;;;1.47;100.00;98998.06;4989695;28;20093;-62
2023/02/25 07:28:00;;;;;;;2.05;1.25;;;;;;;1.45;100.00;99003.31;4996182;28;20042;-63
2023/02/25 07:30:28;;;;;;;3.10;1.20;;;;;;;1.48;100.00;99010.09;4993037;28;20061;-63
2023/02/25 07:32:55;;;;;;;2.03;1.10;;;;;;;1.53;100.00;99015.91;4997929;28;20061;-63
2023/02/25 07:35:22;;;;;;;1.38;0.88;;;;;;;1.57;100.00;99014.84;4990456;28;20401;-62
2023/02/25 07:37:50;;;;;;;2.30;1.13;;;;;;;1.56;100.00;99012.34;5002507;28;20053;-64
2023/02/25 07:40:18;;;;;;;1.20;1.00;;;;;;;1.57;100.00;99021.78;5003755;28;20092;-65
2023/02/25 07:42:45;;;;;;;1.50;0.98;;;;;;;1.57;100.00;99025.22;4998693;28;20085;-64
2023/02/25 07:45:12;;;;;;;1.40;0.93;;;;;;;1.54;100.00;99027.97;4994411;28;20059;-65
2023/02/25 07:47:39;;;;;;;2.17;0.98;;;;;;;1.50;100.00;99040.25;4997694;28;20054;-66
2023/02/25 07:50:08;;;;;;;1.60;1.02;;;;;;;1.49;100.00;99033.38;4985162;28;20050;-64
2023/02/25 07:52:38;;;;;;;1.88;1.20;;;;;;;1.54;100.00;99037.53;4986228;28;20050;-64
2023/02/25 07:55:06;;;;;;;1.75;0.90;;;;;;;1.50;100.00;99035.06;5011030;28;20348;-64
2023/02/25 07:57:34;;;;;;;1.52;0.80;;;;;;;1.47;100.00;99045.56;4992901;28;20050;-63
2023/02/25 08:00:03;;;;;;;1.83;1.25;;;;;;;1.54;100.00;99048.72;4990629;28;20050;-62
2023/02/25 08:02:30;;;;;;;4.00;1.30;;;;;;;1.63;100.00;99044.84;4990406;28;20042;-64
2023/02/25 08:04:59;;;;;;;1.35;0.98;;;;;;;1.70;100.00;99056.59;4996322;28;20061;-63
2023/02/25 08:07:28;;;;;;;1.48;0.93;;;;;;;1.74;100.00;99069.34;4992574;28;20129;-64
2023/02/25 08:09:55;;;;;;;1.83;1.20;;;;;;;1.65;100.00;99059.41;4989456;28;20072;-65
2023/02/25 08:12:22;;;;;;;1.50;0.90;;;;;;;1.72;100.00;99065.16;4996305;28;20068;-64
2023/02/25 08:14:49;;;;;;;1.45;1.00;;;;;;;1.78;100.00;99075.25;4997598;28;20133;-64
2023/02/25 08:17:17;;;;;;;1.55;1.13;;;;;;;1.71;100.00;99074.72;4992384;28;20065;-64
2023/02/25 08:19:44;;;;;;;1.40;0.85;;;;;;;1.69;100.00;99081.72;4996529;28;20504;-64
2023/02/25 08:22:11;;;;;;;1.90;0.80;;;;;;;1.66;100.00;99081.84;4993262;28;20137;-63
2023/02/25 08:24:38;;;;;;;1.85;0.90;;;;;;;1.67;100.00;99086.16;4997822;28;20051;-63
2023/02/25 08:27:07;;;;;;;2.35;1.27;;;;;;;1.72;100.00;99085.94;4996973;28;20514;-63
2023/02/25 08:29:35;;;;;;;1.20;1.00;;;;;;;1.79;100.00;99087.28;4992559;28;20146;-63
2023/02/25 08:32:05;;;;;;;1.35;0.93;;;;;;;1.77;100.00;99096.91;4997774;28;20066;-63
2023/02/25 08:34:33;;;;;;;2.63;0.90;;;;;;;1.76;100.00;99098.69;4999088;28;20097;-62
2023/02/25 08:37:01;;;;;;;1.52;0.80;;;;;;;1.70;100.00;99108.50;4998311;28;20042;-63
2023/02/25 08:39:29;;;;;;;0.98;0.70;;;;;;;1.76;100.00;99113.41;4992839;28;20050;-64
2023/02/25 08:41:56;;;;;;;2.08;1.00;;;;;;;1.91;100.00;99120.47;4992407;28;20050;-64
2023/02/25 08:44:24;;;;;;;1.10;0.90;;;;;;;1.82;100.00;99117.47;5001197;28;20911;-64
2023/02/25 08:46:51;;;;;;;1.00;0.80;;;;;;;1.76;100.00;99128.97;5001394;28;20418;-64
2023/02/25 08:49:18;;;;;;;4.05;1.05;;;;;;;1.82;100.00;99136.47;4997033;28;20056;-67
2023/02/25 08:51:49;;;;;;;2.60;1.20;;;;;;;1.76;100.00;99132.41;4996166;28;20298;-64
2023/02/25 08:54:16;;;;;;;1.77;1.00;;;;;;;1.80;100.00;99133.06;5001790;28;20146;-64
2023/02/25 08:56:43;;;;;;;1.23;0.90;;;;;;;1.82;100.00;99139.06;5011622;28;20044;-65
2023/02/25 08:59:14;;;;;;;3.03;1.00;;;;;;;1.81;100.00;99152.13;4993643;28;20108;-65
2023/02/25 09:01:44;;;;;;;1.63;0.80;;;;;;;1.74;100.00;99152.38;4995903;28;20050;-64
2023/02/25 09:04:22;;;;;;;1.48;0.82;;;;;;;1.73;100.00;99168.03;4998351;28;20058;-64
2023/02/25 09:06:51;;;;;;;4.20;1.63;;;;;;;1.76;100.00;99163.53;5000778;28;20133;-64
2023/02/25 09:09:20;;;;;;;1.25;0.90;;;;;;;1.75;100.00;99172.22;4996280;28;20066;-63
2023/02/25 09:11:47;;;;;;;1.65;0.90;;;;;;;1.80;100.00;99177.19;5003435;28;20053;-63
2023/02/25 09:14:15;;;;;;;2.28;1.30;;;;;;;1.87;100.00;99182.94;5001868;28;20523;-63
2023/02/25 09:16:43;;;;;;;1.85;0.90;;;;;;;1.96;100.00;99185.94;5015728;28;20840;-65
2023/02/25 09:19:11;;;;;;;1.75;1.05;;;;;;;1.99;100.00;99187.56;4999866;28;20046;-65
2023/02/25 09:21:41;;;;;;;1.48;0.90;;;;;;;1.95;100.00;99189.47;4999693;28;20140;-63
2023/02/25 09:24:08;;;;;;;2.40;0.75;;;;;;;1.92;100.00;99199.16;5002341;28;20460;-62
2023/02/25 09:26:35;;;;;;;0.75;0.55;;;;;;;1.91;100.00;99200.91;5001739;28;20180;-63
2023/02/25 09:29:04;;;;;;;1.42;0.80;;;;;;;1.96;100.00;99205.88;5002207;28;20056;-63
2023/02/25 09:31:33;;;;;;;1.30;1.15;;;;;;;1.95;100.00;99209.41;5003750;28;20058;-64
2023/02/25 09:34:03;;;;;;;1.60;0.75;;;;;;;1.89;100.00;99213.13;4999545;28;20056;-64
2023/02/25 09:36:31;;;;;;;1.05;0.80;;;;;;;2.01;100.00;99217.72;4989466;28;20078;-65
2023/02/25 09:38:58;;;;;;;2.90;0.70;;;;;;;2.08;100.00;99220.88;5015839;28;20042;-63
2023/02/25 09:41:45;;;;;;;0.90;0.70;;;;;;;2.06;100.00;99225.28;4997060;28;20049;-63
2023/02/25 09:44:21;;;;;;;1.35;0.75;;;;;;;2.08;100.00;99233.03;4993004;28;20164;-64
2023/02/25 09:47:29;;;;;;;0.93;0.60;;;;;;;2.12;100.00;99230.22;4994479;28;20125;-63
2023/02/25 09:50:11;;;;;;;0.75;0.68;;;;;;;2.18;100.00;99237.72;4992529;28;20537;-66
2023/02/25 09:52:45;;;;;;;0.93;0.60;;;;;;;2.27;100.00;99234.69;4991280;28;20140;-65
2023/02/25 09:55:32;;;;;;;0.95;0.52;;;;;;;2.29;100.00;99243.22;4993924;28;21436;-65
2023/02/25 09:58:02;;;;;;;1.40;0.70;;;;;;;2.43;100.00;99249.53;4989063;28;20402;-64
2023/02/25 10:00:31;;;;;;;2.03;0.90;;;;;;;2.37;100.00;99248.06;4989354;28;20042;-64
2023/02/25 10:03:13;;;;;;;1.83;0.70;;;;;;;2.30;100.00;99259.69;4991175;28;20052;-64
2023/02/25 10:05:47;;;;;;;0.70;0.55;;;;;;;2.28;100.00;99262.31;4988310;28;20410;-64
2023/02/25 10:08:22;;;;;;;1.27;0.80;;;;;;;2.37;100.00;99265.41;4993005;28;20141;-63
2023/02/25 10:11:11;;;;;;;2.28;0.60;;;;;;;2.43;100.00;99272.91;4995630;28;20463;-64
2023/02/25 10:13:55;;;;;;;3.15;0.90;;;;;;;2.36;100.00;99285.34;4993331;28;20709;-64
2023/02/25 10:16:26;;;;;;;0.82;0.68;;;;;;;2.39;100.00;99277.44;5009440;28;20062;-63
2023/02/25 10:19:00;;;;;;;1.05;0.70;;;;;;;2.46;100.00;99291.78;4996989;28;20049;-66
2023/02/25 10:21:38;;;;;;;1.75;0.88;;;;;;;2.50;100.00;99293.34;4993551;28;20142;-63
2023/02/25 10:24:29;;;;;;;1.73;0.60;;;;;;;2.62;100.00;99298.88;4995525;28;20836;-64
2023/02/25 10:27:28;;;;;;;0.82;0.40;;;;;;;2.68;100.00;99302.00;5012654;28;20038;-64
2023/02/25 10:30:03;;;;;;;1.52;0.68;;;;;;;2.66;100.00;99311.66;4997459;28;20064;-64
2023/02/25 10:32:34;;;;;;;2.30;0.63;;;;;;;2.73;100.00;99309.59;4996413;28;20073;-64
2023/02/25 10:35:18;;;;;;;1.48;0.50;;;;;;;2.79;100.00;99306.69;4991648;28;20050;-63
2023/02/25 10:37:45;;;;;;;0.73;0.50;;;;;;;2.77;100.00;99311.97;4992719;28;20885;-61
2023/02/25 10:40:15;;;;;;;1.27;0.60;;;;;;;2.71;100.00;99308.84;4991719;28;20411;-64
2023/02/25 10:42:48;;;;;;;0.60;0.47;;;;;;;2.56;99.84;99312.97;4993482;28;20054;-63
2023/02/25 10:45:28;;;;;;;1.23;0.70;;;;;;;2.59;100.00;99325.00;4994245;28;20054;-63
2023/02/25 10:48:22;;;;;;;0.73;0.50;;;;;;;2.60;100.00;99329.25;4984701;28;20439;-64
2023/02/25 10:51:11;;;;;;;1.20;0.82;;;;;;;2.59;100.00;99336.22;4988261;28;20044;-64
2023/02/25 10:53:40;;;;;;;1.80;0.70;;;;;;;2.69;100.00;99336.63;4991028;28;20165;-64
2023/02/25 10:56:08;;;;;;;0.90;0.63;;;;;;;2.83;100.00;99331.59;4998063;28;20136;-63
2023/02/25 10:58:40;;;;;;;1.63;0.73;;;;;;;2.85;100.00;99342.78;4994136;28;20133;-64
2023/02/25 11:01:21;;;;;;;1.05;0.68;;;;;;;2.89;100.00;99351.28;4991419;28;20046;-64
2023/02/25 11:03:58;;;;;;;0.93;0.50;;;;;;;3.07;98.88;99339.16;4995585;28;20060;-64
2023/02/25 11:06:28;;;;;;;0.77;0.50;;;;;;;3.16;98.24;99338.72;5011260;28;20108;-65
2023/02/25 11:08:59;;;;;;;1.80;0.60;;;;;;;3.19;96.43;99349.78;4991040;28;20049;-62
2023/02/25 11:11:31;;;;;;;0.85;0.50;;;;;;;3.28;95.85;99344.13;4993972;28;20061;-63
2023/02/25 11:14:04;;;;;;;0.68;0.40;;;;;;;3.19;94.32;99356.75;4993804;28;20136;-64
2023/02/25 11:16:36;;;;;;;1.83;0.60;;;;;;;3.24;95.18;99355.63;4991383;28;20141;-63
2023/02/25 11:19:25;;;;;;;1.00;0.50;;;;;;;3.26;94.70;99355.53;4989084;28;20136;-64
2023/02/25 11:21:56;;;;;;;0.68;0.40;;;;;;;3.30;94.84;99365.72;4990567;28;20125;-64
2023/02/25 11:24:30;;;;;;;2.10;0.55;;;;;;;3.33;95.61;99371.66;4997516;28;20042;-64
2023/02/25 11:26:57;;;;;;;0.77;0.40;;;;;;;3.10;93.90;99373.63;4993192;28;20064;-63
2023/02/25 11:29:36;;;;;;;0.40;0.40;;;;;;;3.09;95.30;99376.31;4986459;28;20189;-63
2023/02/25 11:32:12;;;;;;;1.02;0.40;;;;;;;3.05;95.58;99386.84;4995908;28;20076;-64
2023/02/25 11:34:52;;;;;;;0.60;0.40;;;;;;;3.11;97.56;99390.06;5010042;28;20050;-63
2023/02/25 11:37:47;;;;;;;0.85;0.50;;;;;;;3.13;95.92;99378.69;4992369;28;20134;-64
2023/02/25 11:40:27;;;;;;;0.60;0.50;;;;;;;2.90;95.24;99385.00;4994134;28;20165;-64
2023/02/25 11:43:04;;;;;;;1.52;0.75;;;;;;;2.87;94.35;99394.69;4993205;28;20050;-66
2023/02/25 11:45:37;;;;;;;0.65;0.47;;;;;;;2.84;95.26;99394.81;4995578;28;20054;-64
2023/02/25 11:48:18;;;;;;;0.98;0.50;;;;;;;2.97;96.21;99391.59;5001544;28;20133;-65
2023/02/25 11:51:00;;;;;;;1.48;0.80;;;;;;;2.98;94.46;99401.09;4988921;28;20491;-64